sensor_id;sensor_type;location;lat;lon;timestamp;P1;durP1;ratioP1;P2;durP2;ratioP2
8622;SDS011;4349;47.552;8.904;2023-07-22T00:00:17;2.30;;;2.20;;
8622;SDS011;4349;47.552;8.904;2023-07-22T00:02:45;3.63;;;2.67;;
8622;SDS011;4349;47.552;8.904;2023-07-22T00:05:13;2.63;;;2.50;;
8622;SDS011;4349;47.552;8.904;2023-07-22T00:07:40;2.80;;;2.60;;
8622;SDS011;4349;47.552;8.904;2023-07-22T00:10:09;2.30;;;2.20;;
8622;SDS011;4349;47.552;8.904;2023-07-22T00:12:36;7.80;;;2.60;;
8622;SDS011;4349;47.552;8.904;2023-07-22T00:15:06;2.37;;;2.23;;
8622;SDS011;4349;47.552;8.904;2023-07-22T00:17:33;2.57;;;2.37;;
8622;SDS011;4349;47.552;8.904;2023-07-22T00:20:01;4.53;;;2.80;;
8622;SDS011;4349;47.552;8.904;2023-07-22T00:22:30;2.30;;;2.20;;
8622;SDS011;4349;47.552;8.904;2023-07-22T00:24:58;2.60;;;2.40;;
8622;SDS011;4349;47.552;8.904;2023-07-22T00:27:27;2.93;;;2.73;;
8622;SDS011;4349;47.552;8.904;2023-07-22T00:29:54;2.80;;;2.70;;
8622;SDS011;4349;47.552;8.904;2023-07-22T00:32:23;2.80;;;2.70;;
8622;SDS011;4349;47.552;8.904;2023-07-22T00:34:51;2.90;;;2.70;;
8622;SDS011;4349;47.552;8.904;2023-07-22T00:37:18;2.80;;;2.60;;
8622;SDS011;4349;47.552;8.904;2023-07-22T00:39:46;2.50;;;2.40;;
8622;SDS011;4349;47.552;8.904;2023-07-22T00:42:13;3.97;;;2.53;;
8622;SDS011;4349;47.552;8.904;2023-07-22T00:44:40;3.10;;;2.80;;
8622;SDS011;4349;47.552;8.904;2023-07-22T00:47:08;2.97;;;2.67;;
8622;SDS011;4349;47.552;8.904;2023-07-22T00:49:37;3.07;;;2.87;;
8622;SDS011;4349;47.552;8.904;2023-07-22T00:52:05;3.17;;;2.93;;
8622;SDS011;4349;47.552;8.904;2023-07-22T00:54:33;3.27;;;2.93;;
8622;SDS011;4349;47.552;8.904;2023-07-22T00:57:00;3.20;;;3.00;;
8622;SDS011;4349;47.552;8.904;2023-07-22T00:59:28;3.20;;;2.63;;
8622;SDS011;4349;47.552;8.904;2023-07-22T01:01:55;3.53;;;3.00;;
8622;SDS011;4349;47.552;8.904;2023-07-22T01:04:23;2.93;;;2.73;;
8622;SDS011;4349;47.552;8.904;2023-07-22T01:06:52;2.43;;;2.30;;
8622;SDS011;4349;47.552;8.904;2023-07-22T01:09:22;2.80;;;2.60;;
8622;SDS011;4349;47.552;8.904;2023-07-22T01:11:49;3.93;;;2.70;;
8622;SDS011;4349;47.552;8.904;2023-07-22T01:14:17;3.10;;;2.90;;
8622;SDS011;4349;47.552;8.904;2023-07-22T01:16:44;2.77;;;2.57;;
8622;SDS011;4349;47.552;8.904;2023-07-22T01:19:13;2.70;;;2.60;;
8622;SDS011;4349;47.552;8.904;2023-07-22T01:21:42;2.80;;;2.60;;
8622;SDS011;4349;47.552;8.904;2023-07-22T01:24:11;2.50;;;2.40;;
8622;SDS011;4349;47.552;8.904;2023-07-22T01:26:38;2.80;;;2.60;;
8622;SDS011;4349;47.552;8.904;2023-07-22T01:29:06;2.93;;;2.40;;
8622;SDS011;4349;47.552;8.904;2023-07-22T01:31:34;2.70;;;2.50;;
8622;SDS011;4349;47.552;8.904;2023-07-22T01:34:02;2.80;;;2.60;;
8622;SDS011;4349;47.552;8.904;2023-07-22T01:36:31;2.47;;;2.37;;
8622;SDS011;4349;47.552;8.904;2023-07-22T01:38:58;4.13;;;3.00;;
8622;SDS011;4349;47.552;8.904;2023-07-22T01:41:32;3.10;;;2.87;;
8622;SDS011;4349;47.552;8.904;2023-07-22T01:43:59;5.13;;;3.03;;
8622;SDS011;4349;47.552;8.904;2023-07-22T01:46:27;3.13;;;2.83;;
8622;SDS011;4349;47.552;8.904;2023-07-22T01:48:55;3.00;;;2.80;;
8622;SDS011;4349;47.552;8.904;2023-07-22T01:51:22;2.90;;;2.80;;
8622;SDS011;4349;47.552;8.904;2023-07-22T01:53:50;3.27;;;3.07;;
8622;SDS011;4349;47.552;8.904;2023-07-22T01:56:18;3.20;;;2.90;;
8622;SDS011;4349;47.552;8.904;2023-07-22T01:58:48;3.10;;;2.90;;
8622;SDS011;4349;47.552;8.904;2023-07-22T02:01:15;3.00;;;2.80;;
8622;SDS011;4349;47.552;8.904;2023-07-22T02:03:43;3.13;;;3.00;;
8622;SDS011;4349;47.552;8.904;2023-07-22T02:06:11;3.90;;;2.90;;
8622;SDS011;4349;47.552;8.904;2023-07-22T02:08:39;3.17;;;2.87;;
8622;SDS011;4349;47.552;8.904;2023-07-22T02:11:07;3.40;;;3.20;;
8622;SDS011;4349;47.552;8.904;2023-07-22T02:13:35;3.27;;;2.93;;
8622;SDS011;4349;47.552;8.904;2023-07-22T02:16:04;3.07;;;2.87;;
8622;SDS011;4349;47.552;8.904;2023-07-22T02:18:32;3.23;;;3.00;;
8622;SDS011;4349;47.552;8.904;2023-07-22T02:20:59;2.70;;;2.60;;
8622;SDS011;4349;47.552;8.904;2023-07-22T02:23:27;2.87;;;2.77;;
8622;SDS011;4349;47.552;8.904;2023-07-22T02:25:54;3.27;;;3.00;;
8622;SDS011;4349;47.552;8.904;2023-07-22T02:28:22;3.23;;;3.10;;
8622;SDS011;4349;47.552;8.904;2023-07-22T02:30:51;2.80;;;2.70;;
8622;SDS011;4349;47.552;8.904;2023-07-22T02:33:20;3.20;;;3.00;;
8622;SDS011;4349;47.552;8.904;2023-07-22T02:35:50;3.27;;;3.00;;
8622;SDS011;4349;47.552;8.904;2023-07-22T02:38:18;3.90;;;3.00;;
8622;SDS011;4349;47.552;8.904;2023-07-22T02:40:45;3.10;;;2.90;;
8622;SDS011;4349;47.552;8.904;2023-07-22T02:43:13;3.70;;;3.50;;
8622;SDS011;4349;47.552;8.904;2023-07-22T02:45:41;4.67;;;3.00;;
8622;SDS011;4349;47.552;8.904;2023-07-22T02:48:09;3.10;;;3.00;;
8622;SDS011;4349;47.552;8.904;2023-07-22T02:50:38;3.27;;;3.07;;
8622;SDS011;4349;47.552;8.904;2023-07-22T02:53:07;3.63;;;2.90;;
8622;SDS011;4349;47.552;8.904;2023-07-22T02:55:34;3.90;;;3.10;;
8622;SDS011;4349;47.552;8.904;2023-07-22T02:58:02;3.40;;;3.13;;
8622;SDS011;4349;47.552;8.904;2023-07-22T03:00:29;3.30;;;3.00;;
8622;SDS011;4349;47.552;8.904;2023-07-22T03:02:57;3.40;;;3.07;;
8622;SDS011;4349;47.552;8.904;2023-07-22T03:05:27;3.20;;;3.10;;
8622;SDS011;4349;47.552;8.904;2023-07-22T03:07:56;3.10;;;2.90;;
8622;SDS011;4349;47.552;8.904;2023-07-22T03:10:24;3.10;;;2.90;;
8622;SDS011;4349;47.552;8.904;2023-07-22T03:12:53;4.33;;;2.80;;
8622;SDS011;4349;47.552;8.904;2023-07-22T03:15:21;2.70;;;2.60;;
8622;SDS011;4349;47.552;8.904;2023-07-22T03:17:49;3.10;;;2.80;;
8622;SDS011;4349;47.552;8.904;2023-07-22T03:20:17;3.07;;;2.87;;
8622;SDS011;4349;47.552;8.904;2023-07-22T03:22:46;2.87;;;2.77;;
8622;SDS011;4349;47.552;8.904;2023-07-22T03:25:16;3.07;;;2.87;;
8622;SDS011;4349;47.552;8.904;2023-07-22T03:27:44;3.07;;;2.90;;
8622;SDS011;4349;47.552;8.904;2023-07-22T03:30:13;3.40;;;3.20;;
8622;SDS011;4349;47.552;8.904;2023-07-22T03:32:42;3.63;;;3.07;;
8622;SDS011;4349;47.552;8.904;2023-07-22T03:35:09;2.70;;;2.60;;
8622;SDS011;4349;47.552;8.904;2023-07-22T03:37:38;3.50;;;3.20;;
8622;SDS011;4349;47.552;8.904;2023-07-22T03:40:06;3.40;;;3.20;;
8622;SDS011;4349;47.552;8.904;2023-07-22T03:42:39;3.50;;;3.20;;
8622;SDS011;4349;47.552;8.904;2023-07-22T03:45:07;2.83;;;2.73;;
8622;SDS011;4349;47.552;8.904;2023-07-22T03:47:35;3.30;;;3.10;;
8622;SDS011;4349;47.552;8.904;2023-07-22T03:50:03;3.33;;;3.17;;
8622;SDS011;4349;47.552;8.904;2023-07-22T03:52:31;3.20;;;3.00;;
8622;SDS011;4349;47.552;8.904;2023-07-22T03:54:59;3.23;;;3.03;;
8622;SDS011;4349;47.552;8.904;2023-07-22T03:57:27;3.70;;;3.40;;
8622;SDS011;4349;47.552;8.904;2023-07-22T03:59:56;3.40;;;3.03;;
8622;SDS011;4349;47.552;8.904;2023-07-22T04:02:23;3.50;;;3.30;;
8622;SDS011;4349;47.552;8.904;2023-07-22T04:04:52;3.63;;;3.43;;
8622;SDS011;4349;47.552;8.904;2023-07-22T04:07:20;3.10;;;2.90;;
8622;SDS011;4349;47.552;8.904;2023-07-22T04:09:48;3.50;;;3.20;;
8622;SDS011;4349;47.552;8.904;2023-07-22T04:12:15;3.70;;;3.43;;
8622;SDS011;4349;47.552;8.904;2023-07-22T04:14:43;3.40;;;3.20;;
8622;SDS011;4349;47.552;8.904;2023-07-22T04:17:12;3.63;;;3.30;;
8622;SDS011;4349;47.552;8.904;2023-07-22T04:19:41;3.23;;;2.93;;
8622;SDS011;4349;47.552;8.904;2023-07-22T04:22:12;3.17;;;3.07;;
8622;SDS011;4349;47.552;8.904;2023-07-22T04:24:40;4.13;;;3.87;;
8622;SDS011;4349;47.552;8.904;2023-07-22T04:27:07;4.83;;;4.30;;
8622;SDS011;4349;47.552;8.904;2023-07-22T04:29:35;4.17;;;3.87;;
8622;SDS011;4349;47.552;8.904;2023-07-22T04:32:06;3.63;;;3.37;;
8622;SDS011;4349;47.552;8.904;2023-07-22T04:34:36;3.50;;;3.20;;
8622;SDS011;4349;47.552;8.904;2023-07-22T04:37:03;4.03;;;3.73;;
8622;SDS011;4349;47.552;8.904;2023-07-22T04:39:30;3.53;;;3.33;;
8622;SDS011;4349;47.552;8.904;2023-07-22T04:41:58;3.30;;;3.10;;
8622;SDS011;4349;47.552;8.904;2023-07-22T04:44:26;4.57;;;3.27;;
8622;SDS011;4349;47.552;8.904;2023-07-22T04:46:54;5.03;;;3.87;;
8622;SDS011;4349;47.552;8.904;2023-07-22T04:49:21;3.67;;;3.37;;
8622;SDS011;4349;47.552;8.904;2023-07-22T04:51:50;3.37;;;3.17;;
8622;SDS011;4349;47.552;8.904;2023-07-22T04:54:18;3.20;;;3.00;;
8622;SDS011;4349;47.552;8.904;2023-07-22T04:56:45;3.93;;;3.63;;
8622;SDS011;4349;47.552;8.904;2023-07-22T04:59:13;3.90;;;3.60;;
8622;SDS011;4349;47.552;8.904;2023-07-22T05:01:41;3.13;;;2.80;;
8622;SDS011;4349;47.552;8.904;2023-07-22T05:04:09;3.17;;;2.97;;
8622;SDS011;4349;47.552;8.904;2023-07-22T05:06:37;4.37;;;2.90;;
8622;SDS011;4349;47.552;8.904;2023-07-22T05:09:06;2.90;;;2.80;;
8622;SDS011;4349;47.552;8.904;2023-07-22T05:11:33;3.27;;;3.00;;
8622;SDS011;4349;47.552;8.904;2023-07-22T05:14:01;3.17;;;2.87;;
8622;SDS011;4349;47.552;8.904;2023-07-22T05:16:28;3.13;;;2.93;;
8622;SDS011;4349;47.552;8.904;2023-07-22T05:18:56;3.30;;;3.10;;
8622;SDS011;4349;47.552;8.904;2023-07-22T05:21:24;3.27;;;2.97;;
8622;SDS011;4349;47.552;8.904;2023-07-22T05:23:51;3.20;;;3.10;;
8622;SDS011;4349;47.552;8.904;2023-07-22T05:26:20;3.30;;;3.10;;
8622;SDS011;4349;47.552;8.904;2023-07-22T05:28:47;3.23;;;3.10;;
8622;SDS011;4349;47.552;8.904;2023-07-22T05:31:15;4.03;;;3.70;;
8622;SDS011;4349;47.552;8.904;2023-07-22T05:33:43;5.00;;;3.60;;
8622;SDS011;4349;47.552;8.904;2023-07-22T05:36:10;7.10;;;3.87;;
8622;SDS011;4349;47.552;8.904;2023-07-22T05:38:38;3.40;;;3.20;;
8622;SDS011;4349;47.552;8.904;2023-07-22T05:41:05;5.47;;;3.87;;
8622;SDS011;4349;47.552;8.904;2023-07-22T05:43:34;4.20;;;3.90;;
8622;SDS011;4349;47.552;8.904;2023-07-22T05:46:01;4.03;;;3.73;;
8622;SDS011;4349;47.552;8.904;2023-07-22T05:48:29;3.83;;;3.53;;
8622;SDS011;4349;47.552;8.904;2023-07-22T05:50:56;3.90;;;3.67;;
8622;SDS011;4349;47.552;8.904;2023-07-22T05:53:24;3.93;;;3.70;;
8622;SDS011;4349;47.552;8.904;2023-07-22T05:55:51;3.70;;;3.50;;
8622;SDS011;4349;47.552;8.904;2023-07-22T05:58:19;3.47;;;3.17;;
8622;SDS011;4349;47.552;8.904;2023-07-22T06:00:48;3.93;;;3.70;;
8622;SDS011;4349;47.552;8.904;2023-07-22T06:03:17;3.80;;;3.60;;
8622;SDS011;4349;47.552;8.904;2023-07-22T06:05:45;3.33;;;3.13;;
8622;SDS011;4349;47.552;8.904;2023-07-22T06:08:13;3.77;;;3.57;;
8622;SDS011;4349;47.552;8.904;2023-07-22T06:10:40;3.53;;;3.33;;
8622;SDS011;4349;47.552;8.904;2023-07-22T06:13:08;3.90;;;3.70;;
8622;SDS011;4349;47.552;8.904;2023-07-22T06:15:35;4.57;;;4.17;;
8622;SDS011;4349;47.552;8.904;2023-07-22T06:18:04;5.40;;;4.20;;
8622;SDS011;4349;47.552;8.904;2023-07-22T06:20:34;4.23;;;3.93;;
8622;SDS011;4349;47.552;8.904;2023-07-22T06:23:02;4.13;;;3.83;;
8622;SDS011;4349;47.552;8.904;2023-07-22T06:25:30;4.00;;;3.70;;
8622;SDS011;4349;47.552;8.904;2023-07-22T06:27:57;3.90;;;3.70;;
8622;SDS011;4349;47.552;8.904;2023-07-22T06:30:25;4.20;;;3.67;;
8622;SDS011;4349;47.552;8.904;2023-07-22T06:32:52;4.23;;;4.03;;
8622;SDS011;4349;47.552;8.904;2023-07-22T06:35:21;4.03;;;3.73;;
8622;SDS011;4349;47.552;8.904;2023-07-22T06:37:48;4.00;;;3.80;;
8622;SDS011;4349;47.552;8.904;2023-07-22T06:40:16;4.43;;;4.03;;
8622;SDS011;4349;47.552;8.904;2023-07-22T06:42:43;4.17;;;3.87;;
8622;SDS011;4349;47.552;8.904;2023-07-22T06:45:11;4.20;;;3.90;;
8622;SDS011;4349;47.552;8.904;2023-07-22T06:47:38;4.20;;;3.90;;
8622;SDS011;4349;47.552;8.904;2023-07-22T06:50:06;4.50;;;4.10;;
8622;SDS011;4349;47.552;8.904;2023-07-22T06:52:35;4.43;;;4.13;;
8622;SDS011;4349;47.552;8.904;2023-07-22T06:55:03;3.80;;;3.60;;
8622;SDS011;4349;47.552;8.904;2023-07-22T06:57:32;4.17;;;3.80;;
8622;SDS011;4349;47.552;8.904;2023-07-22T06:59:59;3.80;;;3.60;;
8622;SDS011;4349;47.552;8.904;2023-07-22T07:02:27;4.67;;;4.00;;
8622;SDS011;4349;47.552;8.904;2023-07-22T07:04:54;5.17;;;4.07;;
8622;SDS011;4349;47.552;8.904;2023-07-22T07:07:22;4.13;;;3.93;;
8622;SDS011;4349;47.552;8.904;2023-07-22T07:09:51;4.03;;;3.70;;
8622;SDS011;4349;47.552;8.904;2023-07-22T07:12:18;4.07;;;3.87;;
8622;SDS011;4349;47.552;8.904;2023-07-22T07:14:46;4.00;;;3.70;;
8622;SDS011;4349;47.552;8.904;2023-07-22T07:17:17;3.87;;;3.67;;
8622;SDS011;4349;47.552;8.904;2023-07-22T07:19:44;4.30;;;4.00;;
8622;SDS011;4349;47.552;8.904;2023-07-22T07:22:11;3.80;;;3.60;;
8622;SDS011;4349;47.552;8.904;2023-07-22T07:24:39;6.10;;;3.87;;
8622;SDS011;4349;47.552;8.904;2023-07-22T07:27:08;4.00;;;3.70;;
8622;SDS011;4349;47.552;8.904;2023-07-22T07:29:35;4.10;;;3.60;;
8622;SDS011;4349;47.552;8.904;2023-07-22T07:32:19;3.80;;;3.50;;
8622;SDS011;4349;47.552;8.904;2023-07-22T07:34:47;3.47;;;3.27;;
8622;SDS011;4349;47.552;8.904;2023-07-22T07:37:15;3.97;;;3.67;;
8622;SDS011;4349;47.552;8.904;2023-07-22T07:39:42;3.63;;;3.33;;
8622;SDS011;4349;47.552;8.904;2023-07-22T07:42:11;3.60;;;3.40;;
8622;SDS011;4349;47.552;8.904;2023-07-22T07:44:38;3.77;;;3.47;;
8622;SDS011;4349;47.552;8.904;2023-07-22T07:47:06;3.50;;;3.30;;
8622;SDS011;4349;47.552;8.904;2023-07-22T07:49:33;3.83;;;3.50;;
8622;SDS011;4349;47.552;8.904;2023-07-22T07:52:01;4.03;;;3.50;;
8622;SDS011;4349;47.552;8.904;2023-07-22T07:54:28;4.00;;;3.60;;
8622;SDS011;4349;47.552;8.904;2023-07-22T07:56:58;4.33;;;3.93;;
8622;SDS011;4349;47.552;8.904;2023-07-22T07:59:27;4.10;;;3.80;;
8622;SDS011;4349;47.552;8.904;2023-07-22T08:01:55;3.80;;;3.53;;
8622;SDS011;4349;47.552;8.904;2023-07-22T08:04:22;3.30;;;3.10;;
8622;SDS011;4349;47.552;8.904;2023-07-22T08:06:50;3.70;;;3.40;;
8622;SDS011;4349;47.552;8.904;2023-07-22T08:09:17;3.13;;;3.00;;
8622;SDS011;4349;47.552;8.904;2023-07-22T08:11:46;3.37;;;3.07;;
8622;SDS011;4349;47.552;8.904;2023-07-22T08:14:13;2.80;;;2.70;;
8622;SDS011;4349;47.552;8.904;2023-07-22T08:16:42;3.00;;;2.80;;
8622;SDS011;4349;47.552;8.904;2023-07-22T08:19:10;2.93;;;2.80;;
8622;SDS011;4349;47.552;8.904;2023-07-22T08:21:37;2.87;;;2.63;;
8622;SDS011;4349;47.552;8.904;2023-07-22T08:24:05;5.00;;;3.07;;
8622;SDS011;4349;47.552;8.904;2023-07-22T08:26:33;3.23;;;3.13;;
8622;SDS011;4349;47.552;8.904;2023-07-22T08:29:01;5.13;;;3.13;;
8622;SDS011;4349;47.552;8.904;2023-07-22T08:31:28;2.70;;;2.60;;
8622;SDS011;4349;47.552;8.904;2023-07-22T08:33:57;2.73;;;2.63;;
8622;SDS011;4349;47.552;8.904;2023-07-22T08:36:25;2.57;;;2.47;;
8622;SDS011;4349;47.552;8.904;2023-07-22T08:38:53;2.57;;;2.37;;
8622;SDS011;4349;47.552;8.904;2023-07-22T08:41:20;2.90;;;2.70;;
8622;SDS011;4349;47.552;8.904;2023-07-22T08:43:48;3.10;;;2.73;;
8622;SDS011;4349;47.552;8.904;2023-07-22T08:46:18;2.83;;;2.70;;
8622;SDS011;4349;47.552;8.904;2023-07-22T08:48:46;2.80;;;2.60;;
8622;SDS011;4349;47.552;8.904;2023-07-22T08:51:16;2.70;;;2.50;;
8622;SDS011;4349;47.552;8.904;2023-07-22T08:53:44;2.17;;;2.07;;
8622;SDS011;4349;47.552;8.904;2023-07-22T08:56:25;2.10;;;2.00;;
8622;SDS011;4349;47.552;8.904;2023-07-22T08:58:53;2.20;;;2.10;;
8622;SDS011;4349;47.552;8.904;2023-07-22T09:01:21;2.45;;;2.20;;
8622;SDS011;4349;47.552;8.904;2023-07-22T09:03:50;2.27;;;2.17;;
8622;SDS011;4349;47.552;8.904;2023-07-22T09:06:20;2.03;;;1.90;;
8622;SDS011;4349;47.552;8.904;2023-07-22T09:08:48;2.43;;;2.33;;
8622;SDS011;4349;47.552;8.904;2023-07-22T09:11:16;3.33;;;2.50;;
8622;SDS011;4349;47.552;8.904;2023-07-22T09:13:44;2.10;;;2.00;;
8622;SDS011;4349;47.552;8.904;2023-07-22T09:16:11;2.27;;;2.17;;
8622;SDS011;4349;47.552;8.904;2023-07-22T09:18:39;3.30;;;2.50;;
8622;SDS011;4349;47.552;8.904;2023-07-22T09:21:07;2.60;;;2.40;;
8622;SDS011;4349;47.552;8.904;2023-07-22T09:23:36;2.27;;;2.17;;
8622;SDS011;4349;47.552;8.904;2023-07-22T09:26:11;2.50;;;2.40;;
8622;SDS011;4349;47.552;8.904;2023-07-22T09:28:51;2.30;;;2.10;;
8622;SDS011;4349;47.552;8.904;2023-07-22T09:31:20;2.08;;;1.98;;
8622;SDS011;4349;47.552;8.904;2023-07-22T09:33:47;2.20;;;2.10;;
8622;SDS011;4349;47.552;8.904;2023-07-22T09:36:15;2.57;;;2.37;;
8622;SDS011;4349;47.552;8.904;2023-07-22T09:38:44;2.90;;;1.70;;
8622;SDS011;4349;47.552;8.904;2023-07-22T09:41:12;2.33;;;2.13;;
8622;SDS011;4349;47.552;8.904;2023-07-22T09:43:39;1.90;;;1.80;;
8622;SDS011;4349;47.552;8.904;2023-07-22T09:46:08;2.30;;;2.10;;
8622;SDS011;4349;47.552;8.904;2023-07-22T09:48:39;1.88;;;1.88;;
8622;SDS011;4349;47.552;8.904;2023-07-22T09:51:11;2.07;;;1.97;;
8622;SDS011;4349;47.552;8.904;2023-07-22T09:53:44;2.75;;;2.47;;
8622;SDS011;4349;47.552;8.904;2023-07-22T09:56:12;2.17;;;2.07;;
8622;SDS011;4349;47.552;8.904;2023-07-22T09:58:40;2.30;;;2.20;;
8622;SDS011;4349;47.552;8.904;2023-07-22T10:01:08;2.97;;;2.40;;
8622;SDS011;4349;47.552;8.904;2023-07-22T10:03:36;2.20;;;2.10;;
8622;SDS011;4349;47.552;8.904;2023-07-22T10:06:04;2.30;;;2.20;;
8622;SDS011;4349;47.552;8.904;2023-07-22T10:08:33;2.20;;;2.10;;
8622;SDS011;4349;47.552;8.904;2023-07-22T10:11:06;2.23;;;2.13;;
8622;SDS011;4349;47.552;8.904;2023-07-22T10:13:35;2.10;;;2.00;;
8622;SDS011;4349;47.552;8.904;2023-07-22T10:16:03;2.43;;;2.27;;
8622;SDS011;4349;47.552;8.904;2023-07-22T10:18:32;2.10;;;2.00;;
8622;SDS011;4349;47.552;8.904;2023-07-22T10:21:00;2.00;;;2.00;;
8622;SDS011;4349;47.552;8.904;2023-07-22T10:23:27;2.53;;;2.33;;
8622;SDS011;4349;47.552;8.904;2023-07-22T10:25:56;2.27;;;2.10;;
8622;SDS011;4349;47.552;8.904;2023-07-22T10:28:25;3.00;;;2.30;;
8622;SDS011;4349;47.552;8.904;2023-07-22T10:30:53;2.23;;;2.07;;
8622;SDS011;4349;47.552;8.904;2023-07-22T10:33:21;2.40;;;2.20;;
8622;SDS011;4349;47.552;8.904;2023-07-22T10:36:01;2.15;;;2.05;;
8622;SDS011;4349;47.552;8.904;2023-07-22T10:38:29;2.33;;;2.23;;
8622;SDS011;4349;47.552;8.904;2023-07-22T10:40:57;2.40;;;2.30;;
8622;SDS011;4349;47.552;8.904;2023-07-22T10:43:26;2.07;;;1.97;;
8622;SDS011;4349;47.552;8.904;2023-07-22T10:45:55;2.58;;;2.42;;
8622;SDS011;4349;47.552;8.904;2023-07-22T10:48:23;2.47;;;2.37;;
8622;SDS011;4349;47.552;8.904;2023-07-22T10:50:53;2.20;;;2.10;;
8622;SDS011;4349;47.552;8.904;2023-07-22T10:53:21;2.08;;;1.98;;
8622;SDS011;4349;47.552;8.904;2023-07-22T10:56:14;2.40;;;2.30;;
8622;SDS011;4349;47.552;8.904;2023-07-22T10:58:59;2.45;;;2.25;;
8622;SDS011;4349;47.552;8.904;2023-07-22T11:01:33;2.60;;;2.50;;
8622;SDS011;4349;47.552;8.904;2023-07-22T11:04:11;2.30;;;2.10;;
8622;SDS011;4349;47.552;8.904;2023-07-22T11:06:53;2.50;;;2.40;;
8622;SDS011;4349;47.552;8.904;2023-07-22T11:09:33;2.30;;;2.20;;
8622;SDS011;4349;47.552;8.904;2023-07-22T11:12:02;2.60;;;2.40;;
8622;SDS011;4349;47.552;8.904;2023-07-22T11:14:31;2.17;;;2.08;;
8622;SDS011;4349;47.552;8.904;2023-07-22T11:16:59;2.22;;;2.13;;
8622;SDS011;4349;47.552;8.904;2023-07-22T11:19:27;2.03;;;2.03;;
8622;SDS011;4349;47.552;8.904;2023-07-22T11:21:55;2.30;;;2.20;;
8622;SDS011;4349;47.552;8.904;2023-07-22T11:24:23;2.50;;;2.40;;
8622;SDS011;4349;47.552;8.904;2023-07-22T11:26:51;2.63;;;2.53;;
8622;SDS011;4349;47.552;8.904;2023-07-22T11:29:18;1.90;;;1.90;;
8622;SDS011;4349;47.552;8.904;2023-07-22T11:31:48;2.15;;;2.10;;
8622;SDS011;4349;47.552;8.904;2023-07-22T11:34:16;1.90;;;1.80;;
8622;SDS011;4349;47.552;8.904;2023-07-22T11:36:44;2.58;;;2.22;;
8622;SDS011;4349;47.552;8.904;2023-07-22T11:39:12;2.55;;;2.35;;
8622;SDS011;4349;47.552;8.904;2023-07-22T11:41:39;2.35;;;2.15;;
8622;SDS011;4349;47.552;8.904;2023-07-22T11:44:08;2.28;;;2.17;;
8622;SDS011;4349;47.552;8.904;2023-07-22T11:46:36;2.60;;;2.50;;
8622;SDS011;4349;47.552;8.904;2023-07-22T11:49:05;2.15;;;2.00;;
8622;SDS011;4349;47.552;8.904;2023-07-22T11:51:32;2.53;;;2.40;;
8622;SDS011;4349;47.552;8.904;2023-07-22T11:54:00;2.88;;;2.50;;
8622;SDS011;4349;47.552;8.904;2023-07-22T11:56:28;2.45;;;2.35;;
8622;SDS011;4349;47.552;8.904;2023-07-22T11:58:55;2.40;;;2.30;;
8622;SDS011;4349;47.552;8.904;2023-07-22T12:01:23;3.92;;;2.42;;
8622;SDS011;4349;47.552;8.904;2023-07-22T12:03:55;2.42;;;2.30;;
8622;SDS011;4349;47.552;8.904;2023-07-22T12:06:25;2.40;;;2.30;;
8622;SDS011;4349;47.552;8.904;2023-07-22T12:08:53;2.50;;;2.30;;
8622;SDS011;4349;47.552;8.904;2023-07-22T12:11:21;2.95;;;2.80;;
8622;SDS011;4349;47.552;8.904;2023-07-22T12:13:49;2.25;;;2.20;;
8622;SDS011;4349;47.552;8.904;2023-07-22T12:16:31;2.28;;;2.17;;
8622;SDS011;4349;47.552;8.904;2023-07-22T12:18:58;2.50;;;2.40;;
8622;SDS011;4349;47.552;8.904;2023-07-22T12:21:29;2.38;;;2.28;;
8622;SDS011;4349;47.552;8.904;2023-07-22T12:23:57;2.30;;;2.20;;
8622;SDS011;4349;47.552;8.904;2023-07-22T12:26:25;3.90;;;2.63;;
8622;SDS011;4349;47.552;8.904;2023-07-22T12:28:53;2.72;;;2.53;;
8622;SDS011;4349;47.552;8.904;2023-07-22T12:31:20;2.20;;;2.10;;
8622;SDS011;4349;47.552;8.904;2023-07-22T12:33:48;2.70;;;2.17;;
8622;SDS011;4349;47.552;8.904;2023-07-22T12:36:16;2.47;;;2.38;;
8622;SDS011;4349;47.552;8.904;2023-07-22T12:38:44;2.47;;;2.38;;
8622;SDS011;4349;47.552;8.904;2023-07-22T12:41:12;2.70;;;2.50;;
8622;SDS011;4349;47.552;8.904;2023-07-22T12:43:39;3.08;;;2.15;;
8622;SDS011;4349;47.552;8.904;2023-07-22T12:46:07;2.40;;;2.30;;
8622;SDS011;4349;47.552;8.904;2023-07-22T12:48:34;2.47;;;2.28;;
8622;SDS011;4349;47.552;8.904;2023-07-22T12:51:02;2.35;;;2.25;;
8622;SDS011;4349;47.552;8.904;2023-07-22T12:53:29;2.28;;;2.17;;
8622;SDS011;4349;47.552;8.904;2023-07-22T12:55:59;2.10;;;2.00;;
8622;SDS011;4349;47.552;8.904;2023-07-22T12:58:29;2.60;;;2.28;;
8622;SDS011;4349;47.552;8.904;2023-07-22T13:00:56;2.28;;;2.17;;
8622;SDS011;4349;47.552;8.904;2023-07-22T13:03:24;2.50;;;2.40;;
8622;SDS011;4349;47.552;8.904;2023-07-22T13:05:51;2.38;;;2.28;;
8622;SDS011;4349;47.552;8.904;2023-07-22T13:08:19;3.55;;;2.20;;
8622;SDS011;4349;47.552;8.904;2023-07-22T13:10:46;2.40;;;2.30;;
8622;SDS011;4349;47.552;8.904;2023-07-22T13:13:15;2.20;;;2.10;;
8622;SDS011;4349;47.552;8.904;2023-07-22T13:15:43;2.25;;;2.13;;
8622;SDS011;4349;47.552;8.904;2023-07-22T13:18:10;2.35;;;2.25;;
8622;SDS011;4349;47.552;8.904;2023-07-22T13:20:39;2.17;;;2.00;;
8622;SDS011;4349;47.552;8.904;2023-07-22T13:23:07;2.22;;;2.10;;
8622;SDS011;4349;47.552;8.904;2023-07-22T13:25:35;2.97;;;2.35;;
8622;SDS011;4349;47.552;8.904;2023-07-22T13:28:02;2.10;;;2.00;;
8622;SDS011;4349;47.552;8.904;2023-07-22T13:30:31;5.30;;;2.55;;
8622;SDS011;4349;47.552;8.904;2023-07-22T13:32:58;2.38;;;2.28;;
8622;SDS011;4349;47.552;8.904;2023-07-22T13:35:26;2.38;;;2.28;;
8622;SDS011;4349;47.552;8.904;2023-07-22T13:37:54;2.33;;;2.22;;
8622;SDS011;4349;47.552;8.904;2023-07-22T13:40:21;2.17;;;2.08;;
8622;SDS011;4349;47.552;8.904;2023-07-22T13:42:49;2.30;;;2.20;;
8622;SDS011;4349;47.552;8.904;2023-07-22T13:45:16;1.98;;;1.98;;
8622;SDS011;4349;47.552;8.904;2023-07-22T13:47:45;2.25;;;2.15;;
8622;SDS011;4349;47.552;8.904;2023-07-22T13:50:13;2.30;;;2.20;;
8622;SDS011;4349;47.552;8.904;2023-07-22T13:52:40;2.38;;;2.22;;
8622;SDS011;4349;47.552;8.904;2023-07-22T13:55:09;2.47;;;2.28;;
8622;SDS011;4349;47.552;8.904;2023-07-22T13:57:36;2.58;;;2.42;;
8622;SDS011;4349;47.552;8.904;2023-07-22T14:00:04;2.30;;;2.20;;
8622;SDS011;4349;47.552;8.904;2023-07-22T14:02:37;2.35;;;2.25;;
8622;SDS011;4349;47.552;8.904;2023-07-22T14:05:06;2.50;;;2.40;;
8622;SDS011;4349;47.552;8.904;2023-07-22T14:07:34;2.53;;;2.42;;
8622;SDS011;4349;47.552;8.904;2023-07-22T14:10:02;2.97;;;2.30;;
8622;SDS011;4349;47.552;8.904;2023-07-22T14:12:30;2.30;;;2.20;;
8622;SDS011;4349;47.552;8.904;2023-07-22T14:14:57;2.53;;;2.33;;
8622;SDS011;4349;47.552;8.904;2023-07-22T14:17:25;2.50;;;2.40;;
8622;SDS011;4349;47.552;8.904;2023-07-22T14:19:53;2.20;;;2.10;;
8622;SDS011;4349;47.552;8.904;2023-07-22T14:22:22;2.60;;;2.40;;
8622;SDS011;4349;47.552;8.904;2023-07-22T14:24:49;2.47;;;2.38;;
8622;SDS011;4349;47.552;8.904;2023-07-22T14:27:17;2.42;;;2.30;;
8622;SDS011;4349;47.552;8.904;2023-07-22T14:29:44;2.00;;;2.00;;
8622;SDS011;4349;47.552;8.904;2023-07-22T14:32:11;2.70;;;2.50;;
8622;SDS011;4349;47.552;8.904;2023-07-22T14:34:39;2.10;;;2.00;;
8622;SDS011;4349;47.552;8.904;2023-07-22T14:37:06;2.28;;;2.05;;
8622;SDS011;4349;47.552;8.904;2023-07-22T14:39:35;2.30;;;2.20;;
8622;SDS011;4349;47.552;8.904;2023-07-22T14:42:03;2.10;;;2.00;;
8622;SDS011;4349;47.552;8.904;2023-07-22T14:44:30;2.10;;;2.00;;
8622;SDS011;4349;47.552;8.904;2023-07-22T14:46:58;2.35;;;2.25;;
8622;SDS011;4349;47.552;8.904;2023-07-22T14:49:25;2.33;;;2.15;;
8622;SDS011;4349;47.552;8.904;2023-07-22T14:51:53;2.03;;;1.92;;
8622;SDS011;4349;47.552;8.904;2023-07-22T14:54:20;2.58;;;2.47;;
8622;SDS011;4349;47.552;8.904;2023-07-22T14:56:49;2.05;;;2.00;;
8622;SDS011;4349;47.552;8.904;2023-07-22T14:59:16;2.42;;;2.00;;
8622;SDS011;4349;47.552;8.904;2023-07-22T15:01:44;2.15;;;2.05;;
8622;SDS011;4349;47.552;8.904;2023-07-22T15:04:11;3.20;;;2.00;;
8622;SDS011;4349;47.552;8.904;2023-07-22T15:06:39;2.25;;;1.98;;
8622;SDS011;4349;47.552;8.904;2023-07-22T15:09:06;2.20;;;2.10;;
8622;SDS011;4349;47.552;8.904;2023-07-22T15:11:35;2.63;;;2.30;;
8622;SDS011;4349;47.552;8.904;2023-07-22T15:14:04;2.35;;;2.17;;
8622;SDS011;4349;47.552;8.904;2023-07-22T15:16:32;2.22;;;2.13;;
8622;SDS011;4349;47.552;8.904;2023-07-22T15:18:59;1.88;;;1.77;;
8622;SDS011;4349;47.552;8.904;2023-07-22T15:21:27;2.10;;;2.10;;